Time;durP1;ratioP1;P1;durP2;ratioP2;P2;SDS_P1;SDS_P2;PMS_P1;PMS_P2;Temp;Humidity;BMP_temperature;BMP_pressure;BME280_temperature;BME280_humidity;BME280_pressure;Samples;Min_cycle;Max_cycle;Signal;HPM_P1;HPM_P2
2024/03/07 00:00:14;;;;;;;26.63;12.05;;;6.80;70.60;;;1.74;100.00;95828.75;5004193;28;20377;-52
2024/03/07 00:02:49;;;;;;;25.80;12.27;;;6.80;70.60;;;1.74;100.00;95828.75;5008044;28;20095;-49
2024/03/07 00:05:24;;;;;;;25.23;12.85;;;6.90;70.60;;;1.77;100.00;95830.16;4991268;28;20033;-53
2024/03/07 00:07:50;;;;;;;24.38;12.23;;;6.90;70.60;;;1.79;100.00;95830.78;4990582;28;20112;-50
2024/03/07 00:10:16;;;;;;;24.73;12.38;;;6.90;70.60;;;1.79;100.00;95823.69;5003045;28;20703;-49
2024/03/07 00:12:44;;;;;;;29.40;12.60;;;6.90;70.60;;;1.79;100.00;95828.16;4983951;28;20018;-57
2024/03/07 00:15:13;;;;;;;23.40;11.38;;;6.90;70.50;;;1.80;100.00;95820.03;4988139;28;20021;-54
2024/03/07 00:17:40;;;;;;;21.52;11.07;;;6.90;70.40;;;1.78;100.00;95819.44;5000519;28;20477;-56
2024/03/07 00:20:14;;;;;;;22.25;11.23;;;6.90;70.50;;;1.79;100.00;95818.44;5009445;28;20018;-56
2024/03/07 00:22:41;;;;;;;22.23;11.23;;;6.90;70.40;;;1.80;100.00;95821.88;5000825;28;20026;-55
2024/03/07 00:25:09;;;;;;;27.00;12.48;;;7.00;70.50;;;1.82;100.00;95820.66;4995566;28;20035;-58
2024/03/07 00:27:36;;;;;;;22.75;11.82;;;7.00;70.50;;;1.83;100.00;95811.75;5005694;28;20480;-56
2024/03/07 00:30:08;;;;;;;19.00;10.75;;;7.00;70.60;;;1.84;100.00;95808.09;4993840;28;20102;-58
2024/03/07 00:32:39;;;;;;;23.27;11.77;;;7.00;70.50;;;1.84;100.00;95813.38;4992450;28;20373;-56
2024/03/07 00:35:09;;;;;;;23.80;11.80;;;7.00;70.50;;;1.79;100.00;95813.19;5009093;28;20389;-57
2024/03/07 00:37:36;;;;;;;22.88;11.73;;;7.00;70.60;;;1.85;100.00;95806.31;5009013;28;20036;-58
2024/03/07 00:40:03;;;;;;;32.78;12.40;;;7.00;70.50;;;1.87;100.00;95806.91;5010685;28;20495;-55
2024/03/07 00:42:29;;;;;;;22.30;12.02;;;7.00;70.50;;;1.88;100.00;95800.66;5010163;28;20037;-54
2024/03/07 00:44:56;;;;;;;24.60;11.80;;;7.00;70.50;;;1.88;100.00;95803.28;4995402;28;20017;-54
2024/03/07 00:47:21;;;;;;;25.40;13.18;;;7.00;70.60;;;1.89;100.00;95802.25;5007999;28;20025;-56
2024/03/07 00:49:47;;;;;;;24.55;11.82;;;7.00;70.50;;;1.88;100.00;95805.91;5011223;28;20021;-56
2024/03/07 00:52:15;;;;;;;24.20;12.23;;;7.00;70.50;;;1.90;100.00;95800.44;5009056;28;20025;-55
2024/03/07 00:54:41;;;;;;;24.95;12.02;;;7.00;70.50;;;1.89;100.00;95797.00;5012989;28;20025;-55
2024/03/07 00:57:08;;;;;;;22.17;11.23;;;7.00;70.50;;;1.91;100.00;95794.97;5007242;28;20029;-55
2024/03/07 00:59:35;;;;;;;23.92;12.02;;;7.00;70.50;;;1.91;100.00;95789.72;5002311;28;20030;-56
2024/03/07 01:02:01;;;;;;;21.17;11.38;;;7.00;70.50;;;1.94;100.00;95797.19;5004633;28;20021;-58
2024/03/07 01:04:30;;;;;;;22.80;11.55;;;7.10;70.60;;;1.93;100.00;95790.31;5010234;28;20017;-56
2024/03/07 01:06:58;;;;;;;26.67;11.75;;;7.10;70.60;;;1.96;100.00;95786.47;4991118;28;20055;-58
2024/03/07 01:09:30;;;;;;;25.65;11.93;;;7.10;70.60;;;1.97;100.00;95791.50;5006464;28;20029;-56
2024/03/07 01:11:56;;;;;;;23.92;11.70;;;7.10;70.60;;;1.96;100.00;95779.41;5010011;28;20052;-57
2024/03/07 01:14:23;;;;;;;23.05;11.43;;;7.10;71.40;;;1.97;100.00;95780.19;5007808;28;20424;-58
2024/03/07 01:16:49;;;;;;;21.58;11.30;;;7.10;70.60;;;1.97;100.00;95780.19;5011464;28;20043;-56
2024/03/07 01:19:15;;;;;;;22.20;10.82;;;7.10;70.60;;;1.98;100.00;95780.00;5010527;28;20074;-58
2024/03/07 01:21:41;;;;;;;22.95;11.45;;;7.10;70.60;;;1.97;100.00;95778.38;4983324;28;20022;-58
2024/03/07 01:24:07;;;;;;;22.20;10.65;;;7.10;70.60;;;1.99;100.00;95773.75;5012385;28;20041;-57
2024/03/07 01:26:36;;;;;;;20.00;10.48;;;7.20;70.60;;;2.02;100.00;95778.59;5010690;28;20096;-51
2024/03/07 01:29:02;;;;;;;20.80;11.07;;;7.20;70.60;;;2.03;100.00;95768.88;5009166;28;20033;-54
2024/03/07 01:31:28;;;;;;;20.23;10.82;;;7.20;70.60;;;2.06;100.00;95768.47;5002987;28;20033;-55
2024/03/07 01:33:54;;;;;;;21.20;11.60;;;7.20;70.60;;;2.04;100.00;95763.44;5010619;28;20044;-57
2024/03/07 01:36:21;;;;;;;18.73;9.80;;;7.20;70.60;;;2.06;100.00;95764.00;5005363;28;20028;-56
2024/03/07 01:38:47;;;;;;;20.08;9.98;;;7.20;70.60;;;2.06;100.00;95758.75;4991198;28;20037;-58
2024/03/07 01:41:14;;;;;;;20.77;11.02;;;7.20;70.70;;;2.06;100.00;95758.75;5008159;28;20017;-55
2024/03/07 01:43:41;;;;;;;23.27;11.60;;;7.20;70.70;;;2.07;100.00;95759.59;4992891;28;20047;-54
2024/03/07 01:46:08;;;;;;;21.67;10.43;;;7.20;70.70;;;2.07;100.00;95757.75;5010293;28;20021;-54
2024/03/07 01:48:35;;;;;;;22.13;10.73;;;7.10;70.60;;;2.08;100.00;95748.06;5001082;28;20056;-53
2024/03/07 01:51:06;;;;;;;19.75;10.23;;;7.20;70.70;;;2.08;100.00;95750.69;4989874;28;20049;-55
2024/03/07 01:53:33;;;;;;;18.48;9.40;;;7.30;70.70;;;2.08;100.00;95740.16;4994966;28;20043;-54
2024/03/07 01:56:02;;;;;;;17.33;9.65;;;7.20;70.60;;;2.08;100.00;95743.59;5005377;28;20052;-57
2024/03/07 01:58:31;;;;;;;20.05;9.77;;;7.20;70.60;;;2.09;100.00;95731.25;4991550;28;20392;-56
2024/03/07 02:00:59;;;;;;;18.67;9.25;;;7.20;70.60;;;2.07;100.00;95728.84;4987721;28;20112;-54
2024/03/07 02:03:26;;;;;;;18.58;9.57;;;7.30;70.70;;;2.07;100.00;95733.31;5007937;28;20510;-58
2024/03/07 02:05:51;;;;;;;19.10;10.05;;;7.20;70.60;;;2.09;100.00;95726.81;5008960;28;20022;-58
2024/03/07 02:08:19;;;;;;;20.42;10.18;;;7.30;70.60;;;2.12;100.00;95724.78;5006934;28;20380;-57
2024/03/07 02:10:46;;;;;;;17.65;9.38;;;7.30;70.60;;;2.15;100.00;95730.44;5006898;28;20117;-55
2024/03/07 02:13:12;;;;;;;17.27;9.55;;;7.30;70.60;;;2.14;100.00;95731.44;5010297;28;20021;-56
2024/03/07 02:15:38;;;;;;;16.58;8.88;;;7.30;70.60;;;2.15;100.00;95719.91;5005001;28;20185;-58
2024/03/07 02:18:04;;;;;;;17.77;8.90;;;7.30;70.60;;;2.17;100.00;95717.09;5008921;28;20021;-57
2024/03/07 02:20:30;;;;;;;15.90;9.30;;;7.30;70.60;;;2.18;100.00;95716.06;4991024;28;20017;-56
2024/03/07 02:22:56;;;;;;;16.92;7.82;;;7.30;70.60;;;2.18;100.00;95713.44;5006448;28;20120;-57
2024/03/07 02:25:22;;;;;;;14.55;8.55;;;7.30;70.60;;;2.15;100.00;95712.03;5007849;28;20051;-58
2024/03/07 02:27:47;;;;;;;16.77;9.65;;;7.30;70.60;;;2.18;100.00;95709.00;5004822;28;20534;-57
2024/03/07 02:30:14;;;;;;;14.90;8.38;;;7.30;70.60;;;2.20;100.00;95704.34;5001174;28;20013;-57
2024/03/07 02:32:40;;;;;;;19.00;10.27;;;7.30;70.70;;;2.19;100.00;95701.91;4992680;28;20060;-56
2024/03/07 02:35:08;;;;;;;16.33;8.98;;;7.30;70.70;;;2.16;100.00;95704.94;5004049;28;20040;-57
2024/03/07 02:37:34;;;;;;;15.82;8.40;;;7.30;70.60;;;2.17;100.00;95703.97;5002406;28;20080;-55
2024/03/07 02:40:01;;;;;;;13.82;7.78;;;7.30;70.60;;;2.19;100.00;95704.53;5007478;28;20484;-55
2024/03/07 02:42:27;;;;;;;16.65;8.68;;;7.30;70.60;;;2.18;100.00;95708.19;5007940;28;20056;-55
2024/03/07 02:44:52;;;;;;;13.63;7.47;;;7.30;70.60;;;2.12;100.00;95698.50;5007928;28;20068;-57
2024/03/07 02:47:18;;;;;;;13.10;7.45;;;7.30;70.60;;;2.14;100.00;95691.22;5007568;28;20025;-56
2024/03/07 02:49:44;;;;;;;13.63;8.00;;;7.30;70.60;;;2.17;100.00;95698.69;5008270;28;20017;-55
2024/03/07 02:52:10;;;;;;;12.25;7.40;;;7.30;70.70;;;2.17;100.00;95696.88;5009238;28;20063;-57
2024/03/07 02:54:36;;;;;;;12.88;7.45;;;7.30;70.70;;;2.20;100.00;95693.03;5006017;28;20401;-54
2024/03/07 02:57:02;;;;;;;16.75;8.70;;;7.30;70.70;;;2.19;100.00;95694.03;5005690;28;20044;-57
2024/03/07 02:59:28;;;;;;;18.52;9.98;;;7.30;70.70;;;2.16;100.00;95691.81;5008531;28;20031;-58
2024/03/07 03:01:53;;;;;;;19.20;10.15;;;7.30;70.70;;;2.16;100.00;95692.59;5006240;28;20029;-58
2024/03/07 03:04:19;;;;;;;19.63;9.77;;;7.30;70.70;;;2.19;100.00;95689.56;5010471;28;20025;-55
2024/03/07 03:06:46;;;;;;;23.55;10.90;;;7.30;70.80;;;2.21;100.00;95687.53;5006154;28;20535;-55
2024/03/07 03:09:13;;;;;;;20.48;10.52;;;7.30;70.80;;;2.21;100.00;95697.25;5003814;28;20431;-56
2024/03/07 03:11:39;;;;;;;22.83;10.48;;;7.30;70.90;;;2.21;100.00;95689.38;5008277;28;20500;-57
2024/03/07 03:14:05;;;;;;;21.95;10.65;;;7.30;70.90;;;2.22;100.00;95688.34;5005304;28;20112;-56
2024/03/07 03:16:31;;;;;;;18.85;10.38;;;7.30;70.90;;;2.24;100.00;95687.13;5007529;28;20435;-56
2024/03/07 03:18:57;;;;;;;20.10;10.20;;;7.30;70.80;;;2.23;100.00;95690.78;5012561;28;20045;-54
2024/03/07 03:21:23;;;;;;;20.45;10.57;;;7.30;70.80;;;2.25;100.00;95693.19;5003618;28;20032;-56
2024/03/07 03:23:49;;;;;;;25.17;11.95;;;7.40;70.90;;;2.27;100.00;95688.53;5006987;28;20052;-52
2024/03/07 03:26:16;;;;;;;26.50;12.35;;;7.40;70.80;;;2.29;100.00;95681.25;5007580;28;20025;-55
2024/03/07 03:28:42;;;;;;;29.30;13.07;;;7.40;70.80;;;2.30;100.00;95688.13;5004320;28;20033;-57
2024/03/07 03:31:08;;;;;;;25.13;12.30;;;7.40;70.80;;;2.33;100.00;95686.91;4987201;28;20037;-56
2024/03/07 03:33:35;;;;;;;25.33;12.57;;;7.40;70.90;;;2.32;100.00;95691.34;5004442;28;20109;-56
2024/03/07 03:36:01;;;;;;;30.60;13.05;;;7.40;70.80;;;2.33;100.00;95692.97;5004600;28;20029;-56
2024/03/07 03:38:27;;;;;;;32.83;14.23;;;7.40;70.90;;;2.29;100.00;95687.31;5001826;28;20435;-57
2024/03/07 03:40:52;;;;;;;33.42;13.75;;;7.40;70.90;;;2.25;100.00;95691.34;5005456;28;20814;-57
2024/03/07 03:43:18;;;;;;;30.25;13.35;;;7.40;71.60;;;2.17;100.00;95686.34;5007181;28;20029;-58
2024/03/07 03:45:45;;;;;;;27.55;12.90;;;7.40;70.80;;;2.17;100.00;95682.94;5006883;28;20022;-57
2024/03/07 03:48:11;;;;;;;62.70;15.70;;;7.30;71.50;;;2.18;100.00;95685.34;5001698;28;20120;-57
2024/03/07 03:50:37;;;;;;;29.90;13.38;;;7.30;70.80;;;2.23;100.00;95685.53;5007091;28;20136;-57
2024/03/07 03:53:03;;;;;;;31.77;13.40;;;7.30;70.90;;;2.23;100.00;95684.72;5007928;28;20472;-56
2024/03/07 03:55:29;;;;;;;32.33;13.98;;;7.30;71.00;;;2.21;100.00;95682.28;5004260;28;20048;-52
2024/03/07 03:57:55;;;;;;;31.25;13.85;;;7.30;71.00;;;2.23;100.00;95676.84;5009103;28;20103;-57
2024/03/07 04:00:22;;;;;;;32.67;14.40;;;7.30;71.00;;;2.21;100.00;95676.22;5006452;28;20013;-57
2024/03/07 04:02:49;;;;;;;38.35;14.75;;;7.30;71.00;;;2.16;100.00;95676.03;4991046;28;20112;-53
2024/03/07 04:05:19;;;;;;;33.30;14.90;;;7.20;71.10;;;2.13;100.00;95674.66;5013737;28;20458;-57
2024/03/07 04:07:46;;;;;;;39.17;15.18;;;7.20;71.10;;;2.10;100.00;95659.31;5008501;28;20034;-56
2024/03/07 04:10:15;;;;;;;45.08;15.70;;;7.30;71.20;;;2.07;100.00;95660.53;4986082;28;20021;-58
2024/03/07 04:12:42;;;;;;;34.88;15.23;;;7.20;71.10;;;2.07;100.00;95654.47;5010225;28;20495;-57
2024/03/07 04:15:13;;;;;;;37.58;15.13;;;7.20;71.20;;;2.07;100.00;95663.16;4987836;28;20552;-57
2024/03/07 04:17:39;;;;;;;36.50;15.87;;;7.10;71.20;;;2.06;100.00;95655.47;5009715;28;20113;-57
2024/03/07 04:20:10;;;;;;;37.65;15.18;;;7.10;71.20;;;2.06;100.00;95648.38;4983152;28;20469;-55
2024/03/07 04:22:38;;;;;;;36.03;15.45;;;7.10;71.30;;;2.07;100.00;95650.00;5011638;28;20041;-58
2024/03/07 04:25:07;;;;;;;34.40;14.98;;;7.10;71.20;;;2.04;100.00;95655.69;5009037;28;20021;-54
2024/03/07 04:27:36;;;;;;;35.38;15.30;;;7.10;71.20;;;1.99;100.00;95652.06;5004392;28;20025;-54
2024/03/07 04:30:07;;;;;;;33.58;15.75;;;7.00;71.20;;;1.99;100.00;95649.44;5009279;28;20075;-55
2024/03/07 04:32:34;;;;;;;30.75;15.65;;;7.00;71.30;;;1.97;100.00;95649.63;5012976;28;20079;-57
2024/03/07 04:35:10;;;;;;;30.83;15.27;;;7.00;71.40;;;2.00;100.00;95645.78;5011702;28;20049;-53
2024/03/07 04:37:40;;;;;;;29.23;14.85;;;7.00;71.50;;;2.01;100.00;95655.31;5000375;28;20129;-56
2024/03/07 04:40:15;;;;;;;32.58;14.90;;;7.00;71.60;;;2.06;100.00;95651.00;4989883;28;20480;-58
2024/03/07 04:42:51;;;;;;;34.58;15.15;;;7.00;71.60;;;2.09;100.00;95657.69;5006862;28;20026;-55
2024/03/07 04:45:21;;;;;;;31.65;14.77;;;7.00;71.70;;;2.07;100.00;95652.66;5012074;28;20029;-56
2024/03/07 04:47:47;;;;;;;27.15;13.68;;;7.10;71.70;;;2.07;100.00;95652.66;4989083;28;20084;-55
2024/03/07 04:50:17;;;;;;;29.42;13.73;;;7.10;71.70;;;2.08;100.00;95645.56;5005902;28;20026;-54
2024/03/07 04:52:43;;;;;;;29.20;14.40;;;7.10;71.70;;;2.08;100.00;95642.94;4989014;28;20103;-58
2024/03/07 04:55:10;;;;;;;27.98;14.27;;;7.10;71.70;;;2.02;100.00;95644.56;4994990;28;20029;-54
2024/03/07 04:57:41;;;;;;;27.33;13.68;;;7.10;71.60;;;2.05;100.00;95640.72;4991915;28;20032;-55
2024/03/07 05:00:15;;;;;;;25.25;14.00;;;7.10;71.70;;;2.02;100.00;95646.41;4979128;28;20484;-55
2024/03/07 05:02:42;;;;;;;25.75;14.00;;;7.10;71.60;;;2.07;100.00;95643.97;5008021;28;20029;-56
2024/03/07 05:05:08;;;;;;;24.92;12.90;;;7.10;71.70;;;2.12;100.00;95640.69;5009817;28;20036;-56
2024/03/07 05:07:35;;;;;;;30.02;14.65;;;7.10;71.70;;;2.12;100.00;95644.13;5008918;28;20365;-54
2024/03/07 05:10:07;;;;;;;25.40;14.15;;;7.10;71.70;;;2.11;100.00;95639.09;4994551;28;20025;-52
2024/03/07 05:12:33;;;;;;;24.40;13.82;;;7.10;71.70;;;2.11;100.00;95646.97;5007464;28;20037;-55
2024/03/07 05:14:59;;;;;;;24.92;13.65;;;7.10;71.80;;;2.12;100.00;95640.69;5012328;28;20036;-57
2024/03/07 05:17:25;;;;;;;25.63;14.10;;;7.20;71.70;;;2.11;100.00;95642.50;5010317;28;20384;-54
2024/03/07 05:19:51;;;;;;;25.52;13.80;;;7.10;71.70;;;2.13;100.00;95648.38;5008999;28;20029;-58
2024/03/07 05:22:18;;;;;;;26.88;14.27;;;7.10;71.70;;;2.13;100.00;95634.41;5002927;28;20074;-52
2024/03/07 05:24:44;;;;;;;23.05;12.82;;;7.10;71.70;;;2.16;100.00;95640.03;5005534;28;20167;-54
2024/03/07 05:27:13;;;;;;;24.88;13.38;;;7.20;71.70;;;2.17;100.00;95636.41;5004487;28;20037;-53
2024/03/07 05:29:41;;;;;;;26.67;13.80;;;7.20;71.70;;;2.17;100.00;95635.63;4987833;28;20017;-58
2024/03/07 05:32:23;;;;;;;24.45;13.30;;;7.20;71.70;;;2.07;100.00;95636.88;5011868;28;20029;-54
2024/03/07 05:34:50;;;;;;;26.27;13.38;;;7.20;71.70;;;2.07;100.00;95636.88;5009962;28;20021;-58
2024/03/07 05:37:16;;;;;;;26.60;14.20;;;7.20;71.70;;;2.13;100.00;95635.25;5003394;28;20033;-57
2024/03/07 05:39:41;;;;;;;26.15;13.32;;;7.10;71.60;;;2.15;100.00;95635.00;5011148;28;20029;-54
2024/03/07 05:42:07;;;;;;;24.08;12.93;;;7.20;71.70;;;2.15;100.00;95624.50;4983311;28;20029;-57
2024/03/07 05:44:34;;;;;;;23.42;12.93;;;7.10;71.60;;;2.16;100.00;95629.53;5002286;28;20053;-57
2024/03/07 05:47:00;;;;;;;26.55;13.98;;;7.20;71.70;;;2.16;100.00;95629.53;5005643;28;20592;-56
2024/03/07 05:49:26;;;;;;;24.77;13.35;;;7.20;71.70;;;2.18;100.00;95627.50;5002532;28;20109;-53
2024/03/07 05:51:51;;;;;;;25.95;13.45;;;7.20;71.70;;;2.21;100.00;95631.53;5005537;28;20026;-56
2024/03/07 05:54:17;;;;;;;24.40;13.05;;;7.20;71.70;;;2.14;100.00;95630.78;5008126;28;20664;-58
2024/03/07 05:56:43;;;;;;;26.30;14.20;;;7.20;71.60;;;2.15;100.00;95627.13;5008446;28;20392;-58
2024/03/07 05:59:09;;;;;;;25.15;13.20;;;7.20;71.60;;;2.18;100.00;95619.63;5007250;28;20029;-58
2024/03/07 06:01:37;;;;;;;26.25;13.50;;;7.20;71.60;;;2.19;100.00;95620.44;5012682;28;20075;-56
2024/03/07 06:04:06;;;;;;;24.55;13.90;;;7.20;71.60;;;2.21;100.00;95621.84;5008638;28;20028;-55
2024/03/07 06:06:35;;;;;;;25.13;12.77;;;7.20;71.60;;;2.17;100.00;95630.38;5004835;28;20029;-58
2024/03/07 06:09:08;;;;;;;22.48;13.15;;;7.20;71.50;;;2.18;100.00;95632.78;5010212;28;20033;-57
2024/03/07 06:11:38;;;;;;;26.35;13.10;;;7.20;71.60;;;2.21;100.00;95634.97;5006900;28;20041;-59
2024/03/07 06:14:06;;;;;;;50.40;14.25;;;7.20;71.60;;;2.24;100.00;95634.56;5004370;28;20042;-59
2024/03/07 06:16:38;;;;;;;28.60;15.10;;;7.20;71.60;;;2.26;100.00;95632.53;5007328;28;20021;-56
2024/03/07 06:19:09;;;;;;;26.23;14.13;;;7.30;71.60;;;2.29;100.00;95640.00;5002424;28;20029;-59
2024/03/07 06:21:39;;;;;;;26.60;14.30;;;7.30;71.60;;;2.29;100.00;95633.94;4989562;28;20424;-56
2024/03/07 06:24:07;;;;;;;29.17;15.30;;;7.40;71.60;;;2.30;100.00;95632.91;5008189;28;20082;-54
2024/03/07 06:27:26;;;;;;;27.23;14.43;;;7.40;71.50;;;2.27;100.00;95635.97;5010626;28;20021;-56
2024/03/07 06:29:27;;;;;;;26.75;15.30;;;7.40;71.50;;;2.31;100.00;95631.88;4985025;28;20045;-57
2024/03/07 06:31:54;;;;;;;26.38;15.15;;;7.40;71.50;;;2.26;100.00;95622.03;5009006;28;20025;-58
2024/03/07 06:34:20;;;;;;;28.60;15.02;;;7.50;71.50;;;2.35;100.00;95629.63;5006729;28;20025;-57
2024/03/07 06:36:46;;;;;;;31.30;16.08;;;7.50;71.50;;;2.37;100.00;95620.53;5008790;28;20083;-53
2024/03/07 06:39:12;;;;;;;27.85;14.55;;;7.50;71.60;;;2.37;100.00;95620.53;5006729;28;20476;-58
2024/03/07 06:41:39;;;;;;;26.25;15.23;;;7.60;71.50;;;2.38;100.00;95619.50;5005405;28;20108;-57
2024/03/07 06:44:07;;;;;;;25.45;14.20;;;7.60;71.50;;;2.38;100.00;95614.25;5002998;28;20036;-57
2024/03/07 06:46:33;;;;;;;25.58;13.80;;;7.60;71.30;;;2.41;100.00;95619.06;5003659;28;20396;-55
2024/03/07 06:48:59;;;;;;;23.55;13.32;;;7.70;72.10;;;2.39;100.00;95621.13;5008883;28;20025;-58
2024/03/07 06:51:25;;;;;;;24.15;13.73;;;7.70;71.20;;;2.46;100.00;95627.16;4984213;28;20029;-57
2024/03/07 06:53:51;;;;;;;26.90;13.48;;;7.70;71.20;;;2.54;100.00;95626.09;5010523;28;20025;-58
2024/03/07 06:56:18;;;;;;;22.13;13.43;;;7.80;71.30;;;2.59;100.00;95623.63;5007056;28;20017;-57
2024/03/07 06:58:48;;;;;;;24.15;13.40;;;7.80;71.30;;;2.60;100.00;95629.69;5001606;28;20026;-59
2024/03/07 07:01:15;;;;;;;27.85;14.05;;;7.80;71.20;;;2.63;100.00;95622.16;5002967;28;20025;-56
2024/03/07 07:03:45;;;;;;;25.65;13.18;;;7.90;71.20;;;2.47;100.00;95622.69;5009868;28;20018;-59
2024/03/07 07:06:11;;;;;;;21.65;12.70;;;7.90;71.00;;;2.58;100.00;95626.47;4988566;28;20017;-58
2024/03/07 07:08:37;;;;;;;23.48;13.25;;;7.90;70.90;;;2.52;100.00;95623.66;5005848;28;20064;-55
2024/03/07 07:11:04;;;;;;;24.13;12.90;;;7.90;70.80;;;2.56;100.00;95621.41;5009419;28;20061;-56
2024/03/07 07:13:31;;;;;;;21.00;13.13;;;7.90;70.80;;;2.60;100.00;95625.25;4988163;28;20048;-56
2024/03/07 07:15:57;;;;;;;23.85;13.90;;;7.90;70.80;;;2.55;100.00;95623.25;4989593;28;20025;-56
2024/03/07 07:18:23;;;;;;;21.90;12.18;;;8.00;70.70;;;2.57;100.00;95623.03;5008528;28;20033;-56
2024/03/07 07:20:52;;;;;;;21.05;12.13;;;8.00;70.70;;;2.57;100.00;95619.59;5006041;28;20032;-52
2024/03/07 07:23:19;;;;;;;21.15;12.43;;;8.00;70.70;;;2.53;100.00;95622.63;5006876;28;20027;-53
2024/03/07 07:25:46;;;;;;;20.95;11.25;;;8.00;70.60;;;2.30;100.00;95617.13;5007187;28;20021;-54
2024/03/07 07:28:12;;;;;;;18.67;11.20;;;8.10;70.60;;;2.39;100.00;95617.69;5001401;28;20033;-56
2024/03/07 07:30:38;;;;;;;20.73;11.30;;;8.10;70.40;;;2.29;100.00;95620.78;5010588;28;20082;-58
2024/03/07 07:33:04;;;;;;;18.75;11.35;;;8.10;70.30;;;2.33;100.00;95615.91;5007275;28;20092;-57
2024/03/07 07:35:31;;;;;;;18.15;10.77;;;8.10;70.30;;;2.26;100.00;95614.13;5015888;28;20026;-57
2024/03/07 07:37:57;;;;;;;20.42;11.73;;;8.10;70.20;;;2.33;100.00;95615.91;5013502;28;20505;-54
2024/03/07 07:40:26;;;;;;;19.58;11.15;;;8.10;70.20;;;2.37;100.00;95609.22;5011349;28;20547;-58
2024/03/07 07:42:53;;;;;;;18.98;10.55;;;8.10;70.10;;;2.41;100.00;95608.56;5014138;28;20029;-55
2024/03/07 07:45:22;;;;;;;16.15;9.70;;;8.20;70.20;;;2.33;100.00;95600.94;5008749;28;20076;-58
2024/03/07 07:47:53;;;;;;;20.00;11.60;;;8.20;70.10;;;2.41;100.00;95613.81;5003459;28;20025;-57
2024/03/07 07:50:22;;;;;;;17.58;10.70;;;8.20;69.90;;;2.48;100.00;95606.72;5014504;28;20399;-55
2024/03/07 07:52:54;;;;;;;17.67;10.70;;;8.20;69.80;;;2.52;100.00;95609.72;5014397;28;20086;-57
2024/03/07 07:55:27;;;;;;;16.58;10.20;;;8.30;69.80;;;2.58;100.00;95611.50;4996752;28;20049;-53
2024/03/07 07:57:57;;;;;;;17.05;10.63;;;8.20;69.70;;;2.54;100.00;95615.59;5013010;28;20060;-57
2024/03/07 08:00:29;;;;;;;21.50;12.65;;;8.20;69.80;;;2.61;100.00;95607.63;5013504;28;20025;-55
2024/03/07 08:03:00;;;;;;;21.47;12.37;;;8.20;69.80;;;2.62;100.00;95610.03;5015082;23;20104;-51
2024/03/07 08:05:36;;;;;;;20.33;12.35;;;8.20;69.90;;;2.58;100.00;95611.50;4975679;28;20132;-53
2024/03/07 08:08:07;;;;;;;21.02;11.90;;;8.20;69.90;;;2.64;100.00;95609.84;4973949;28;20038;-54
2024/03/07 08:10:37;;;;;;;20.58;12.10;;;8.30;69.90;;;2.67;100.00;95607.59;4976787;28;20034;-55
2024/03/07 08:13:10;;;;;;;21.20;11.93;;;8.30;69.90;;;2.82;100.00;95609.06;4976169;28;20060;-51
2024/03/07 08:15:36;;;;;;;18.50;11.63;;;8.40;69.90;;;2.75;100.00;95603.88;4966613;28;20062;-53
2024/03/07 08:18:08;;;;;;;20.40;11.30;;;8.40;69.90;;;2.75;100.00;95606.50;4970258;28;20037;-48
2024/03/07 08:20:35;;;;;;;16.70;10.20;;;8.40;69.80;;;2.76;100.00;95602.88;4969824;28;20041;-50
2024/03/07 08:23:01;;;;;;;20.52;11.10;;;8.40;69.70;;;2.74;100.00;95602.28;4975917;28;20029;-50
2024/03/07 08:25:29;;;;;;;20.40;11.80;;;8.40;69.60;;;2.75;100.00;95602.03;4968368;28;20565;-48
2024/03/07 08:27:57;;;;;;;18.95;10.80;;;8.50;69.60;;;2.72;100.00;95601.66;4970940;28;20080;-51
2024/03/07 08:30:26;;;;;;;20.92;10.68;;;8.50;69.50;;;2.77;100.00;95593.94;4949127;28;20040;-52
2024/03/07 08:32:55;;;;;;;18.48;11.18;;;8.50;69.40;;;2.81;100.00;95600.38;4973408;28;20436;-49
2024/03/07 08:35:23;;;;;;;20.55;11.55;;;8.50;69.40;;;2.91;100.00;95592.78;4972620;28;20485;-50
2024/03/07 08:37:53;;;;;;;19.70;11.45;;;8.50;69.50;;;2.90;100.00;95593.03;4968750;28;20096;-54
2024/03/07 08:40:33;;;;;;;16.13;9.35;;;8.50;69.40;;;2.70;100.00;95590.56;4953995;28;20131;-53
2024/03/07 08:43:01;;;;;;;17.02;10.43;;;8.50;69.30;;;2.77;100.00;95589.50;4968032;28;20477;-50
2024/03/07 08:45:33;;;;;;;16.73;10.15;;;8.60;69.20;;;2.83;100.00;95590.47;4973319;28;20033;-53
2024/03/07 08:47:59;;;;;;;17.60;8.93;;;8.60;69.10;;;2.80;100.00;95577.72;4976339;28;20025;-49
2024/03/07 08:50:27;;;;;;;16.05;9.43;;;8.60;69.10;;;2.87;100.00;95602.16;4973627;28;20037;-52
2024/03/07 08:52:53;;;;;;;12.20;7.78;;;8.70;68.90;;;2.88;100.00;95598.50;4968905;28;20037;-53
2024/03/07 08:55:28;;;;;;;11.82;7.40;;;8.70;68.70;;;2.76;100.00;95589.72;4963205;28;20371;-51
2024/03/07 08:57:54;;;;;;;18.55;8.60;;;8.80;68.50;;;2.74;100.00;95579.41;4966491;28;20113;-50
2024/03/07 09:00:23;;;;;;;14.40;8.82;;;8.80;68.60;;;2.91;100.00;95582.28;4970775;28;20049;-50
2024/03/07 09:02:53;;;;;;;14.10;9.23;;;8.80;68.30;;;3.02;100.00;95578.16;4975858;28;20065;-51
2024/03/07 09:05:24;;;;;;;16.13;8.77;;;8.90;68.20;;;2.97;100.00;95578.78;4992535;28;20083;-48
2024/03/07 09:07:55;;;;;;;17.05;9.27;;;8.90;68.30;;;3.04;100.00;95570.84;4990454;28;20034;-58
2024/03/07 09:10:21;;;;;;;16.45;9.32;;;8.90;68.20;;;3.10;100.00;95572.59;4991383;28;20116;-48
2024/03/07 09:12:51;;;;;;;16.27;9.65;;;8.90;68.30;;;3.04;100.00;95568.22;4990775;28;20037;-48
2024/03/07 09:15:19;;;;;;;15.07;8.73;;;9.00;68.30;;;2.96;100.00;95573.75;4973455;28;20081;-50
2024/03/07 09:17:47;;;;;;;16.05;9.95;;;9.00;68.20;;;3.10;100.00;95567.31;4992406;28;20053;-48
2024/03/07 09:20:15;;;;;;;17.85;10.57;;;9.00;68.10;;;3.21;100.00;95573.72;4990732;28;20057;-51
2024/03/07 09:22:47;;;;;;;20.08;11.48;;;9.10;68.10;;;3.32;100.00;95567.72;4991281;28;20068;-51
2024/03/07 09:25:13;;;;;;;19.23;10.50;;;9.10;68.00;;;3.38;100.00;95563.38;4992055;28;20076;-49
2024/03/07 09:27:40;;;;;;;20.45;10.65;;;9.10;67.90;;;3.35;100.00;95564.63;4992672;28;20092;-52
2024/03/07 09:30:18;;;;;;;23.13;11.18;;;9.20;67.90;;;3.31;100.00;95570.56;4991888;28;20049;-48
2024/03/07 09:32:45;;;;;;;23.38;11.55;;;9.20;67.80;;;3.33;100.00;95561.44;4990496;28;20111;-49
2024/03/07 09:35:14;;;;;;;22.73;11.68;;;9.20;67.90;;;3.41;100.00;95565.59;4991699;28;20022;-53
2024/03/07 09:37:42;;;;;;;22.25;11.43;;;9.30;67.90;;;3.40;100.00;95562.16;4990508;28;20073;-55
2024/03/07 09:40:11;;;;;;;22.70;11.98;;;9.30;67.80;;;3.30;100.00;95564.50;4989316;28;20022;-50
2024/03/07 09:42:56;;;;;;;25.17;12.35;;;9.40;67.70;;;3.43;100.00;95563.53;4973661;28;20429;-49
2024/03/07 09:45:29;;;;;;;20.23;11.07;;;9.40;67.50;;;3.52;100.00;95561.44;4972867;28;20025;-52
2024/03/07 09:47:57;;;;;;;21.25;11.30;;;9.40;67.50;;;3.60;100.00;95561.13;4987259;28;20080;-51
2024/03/07 09:50:28;;;;;;;20.17;11.15;;;9.50;67.40;;;3.57;100.00;95562.34;4990395;28;20392;-52
2024/03/07 09:52:58;;;;;;;22.25;12.02;;;9.60;67.30;;;3.68;100.00;95547.66;4971690;28;20064;-51
2024/03/07 09:55:24;;;;;;;22.42;11.32;;;9.60;67.10;;;3.63;100.00;95550.94;4957867;28;20048;-54
2024/03/07 09:57:50;;;;;;;22.08;11.68;;;9.60;67.00;;;3.72;100.00;95554.06;4972754;28;20040;-49
2024/03/07 10:00:27;;;;;;;23.30;12.25;;;9.60;66.90;;;3.86;100.00;95558.16;4991381;28;20101;-51
2024/03/07 10:03:05;;;;;;;25.63;13.07;;;9.60;66.90;;;3.83;100.00;95563.88;4989864;28;20048;-50
2024/03/07 10:05:32;;;;;;;25.52;13.50;;;9.70;66.90;;;3.75;100.00;95564.19;4957876;28;20484;-52
2024/03/07 10:08:00;;;;;;;26.13;13.68;;;9.60;66.80;;;3.93;100.00;95553.59;4992413;28;20323;-49
2024/03/07 10:10:26;;;;;;;25.25;14.18;;;9.70;66.80;;;4.03;100.00;95565.44;4988907;28;20026;-49
2024/03/07 10:12:57;;;;;;;29.65;14.30;;;9.70;66.80;;;3.80;100.00;95556.41;4986692;28;20078;-49
2024/03/07 10:15:32;;;;;;;26.67;13.90;;;9.70;66.80;;;3.85;100.00;95553.91;4986181;28;20852;-53